עמוד ראשי
METAR-TAF:

METAR-TAF

שדות תעופה :

Al Khardj, ערב הסעודית

קו רוחב: 24-03-19N, קו אורך: 047-33-49E, גובה: 503מטר

תצפית מזג אוויר נוכחית

הדו"ח נערך לפני 17דקות, בשעה 21:00 UTC
רוח 7קשר מכיוון מזרח/צפון-מזרח
טמפרטורת 36 צלסיוס
לחות 11%
לחץ 1007 hPa
ראות: 8000מטר
עננים פזורים בגובה 4000רגל

METAR: OEKJ 132100Z 07007KT 8000 SCT040 36/01 Q1007

זמן: 00:17 (21:17 UTC)

תחזית

הדו"ח נערך לפני 10 שעות ו 17דקות, בשעה 11:00 UTC
תחזית בתוקף מ 13 ב 12 UTC עד 14 ב 18 UTC
רוח 8קשר מכיוון מערב
ראות 10 קילומטר או יותר
מעט עננים בגובה 4000רגל
הסתברות 40% :
זמנית מ -
13 ב 12 UTC עד 13 ב 18 UTC
רוח 20קשר עם כיוונים משתנים
ראות: 4000מטר
מעט עננים בגובה 2500רגל , קומולונימבוס.
עננים פזורים בגובה 4000רגל
אבק נושב
יעשה מ
13 ב 20 UTC עד 13 ב 22 UTC
רוח 8קשר מכיוון צפון
ראות 10 קילומטר או יותר
ללא עננים שבסיסם נמוך מ 5000 רגל או קומולונימבוס

TAF: OEKJ 131100Z 1312/1418 27008KT 9999 FEW040 PROB40 TEMPO 1312/1318 VRB20KT 4000 BLDU FEW025CB SCT040 BECMG 1320/1322 35008KT CAVOK

תצפיות ותחזיות מזג אוויר לגבי יותר מ- 4,000 שדות תעופה ברחבי העולם. דוחות METAR ו- TAF.

התחנות הזמינות מסומנות בנקודות צהובות ואדומות על גבי המפה.

העבר את העכבר לנקודה הצבעונית על מנת לראות את שם התחנה.

לאחר מכן, לחץ כדי לראות את תוכן ואת תחזיות מזג האוויר.

כדי לשנות את המפה: לחץ על הכפתורים הירוקים עם הפלוס השחור כדי להתקרב; על הכפתור הירוק עם המקף כדי להתרחק; או בחיצים הירוקים למפות סמוכות.


METAR-TAF: